sensor_id;sensor_type;location;lat;lon;timestamp;P1;durP1;ratioP1;P2;durP2;ratioP2
64633;SDS011;51043;52.406;9.690;2023-02-23T00:01:53;39.07;;;21.77;;
64633;SDS011;51043;52.406;9.690;2023-02-23T00:04:23;32.37;;;20.97;;
64633;SDS011;51043;52.406;9.690;2023-02-23T00:06:50;31.37;;;20.93;;
64633;SDS011;51043;52.406;9.690;2023-02-23T00:09:18;30.83;;;20.83;;
64633;SDS011;51043;52.406;9.690;2023-02-23T00:11:52;36.30;;;22.50;;
64633;SDS011;51043;52.406;9.690;2023-02-23T00:14:23;36.10;;;20.67;;
64633;SDS011;51043;52.406;9.690;2023-02-23T00:16:53;39.03;;;22.30;;
64633;SDS011;51043;52.406;9.690;2023-02-23T00:19:25;34.63;;;22.53;;
64633;SDS011;51043;52.406;9.690;2023-02-23T00:21:52;37.60;;;24.50;;
64633;SDS011;51043;52.406;9.690;2023-02-23T00:24:19;38.33;;;24.60;;
64633;SDS011;51043;52.406;9.690;2023-02-23T00:26:47;46.93;;;26.27;;
64633;SDS011;51043;52.406;9.690;2023-02-23T00:29:17;45.00;;;27.57;;
64633;SDS011;51043;52.406;9.690;2023-02-23T00:31:48;49.97;;;25.90;;
64633;SDS011;51043;52.406;9.690;2023-02-23T00:34:17;45.83;;;28.47;;
64633;SDS011;51043;52.406;9.690;2023-02-23T00:36:49;36.93;;;24.80;;
64633;SDS011;51043;52.406;9.690;2023-02-23T00:39:19;39.73;;;25.57;;
64633;SDS011;51043;52.406;9.690;2023-02-23T00:41:48;45.77;;;26.60;;
64633;SDS011;51043;52.406;9.690;2023-02-23T00:44:18;39.40;;;24.10;;
64633;SDS011;51043;52.406;9.690;2023-02-23T00:46:46;43.93;;;25.27;;
64633;SDS011;51043;52.406;9.690;2023-02-23T00:49:14;36.17;;;24.07;;
64633;SDS011;51043;52.406;9.690;2023-02-23T00:51:42;36.57;;;23.80;;
64633;SDS011;51043;52.406;9.690;2023-02-23T00:54:11;37.70;;;24.17;;
64633;SDS011;51043;52.406;9.690;2023-02-23T00:56:38;38.13;;;23.87;;
64633;SDS011;51043;52.406;9.690;2023-02-23T00:59:06;35.00;;;22.27;;
64633;SDS011;51043;52.406;9.690;2023-02-23T01:01:33;35.73;;;23.57;;
64633;SDS011;51043;52.406;9.690;2023-02-23T01:04:02;35.97;;;22.33;;
64633;SDS011;51043;52.406;9.690;2023-02-23T01:06:30;34.90;;;22.00;;
64633;SDS011;51043;52.406;9.690;2023-02-23T01:08:57;34.37;;;22.27;;
64633;SDS011;51043;52.406;9.690;2023-02-23T01:11:27;34.40;;;22.60;;
64633;SDS011;51043;52.406;9.690;2023-02-23T01:13:56;33.73;;;22.93;;
64633;SDS011;51043;52.406;9.690;2023-02-23T01:16:30;36.57;;;25.23;;
64633;SDS011;51043;52.406;9.690;2023-02-23T01:18:59;41.13;;;23.27;;
64633;SDS011;51043;52.406;9.690;2023-02-23T01:21:33;37.57;;;24.13;;
64633;SDS011;51043;52.406;9.690;2023-02-23T01:24:03;37.50;;;25.60;;
64633;SDS011;51043;52.406;9.690;2023-02-23T01:26:35;41.77;;;25.97;;
64633;SDS011;51043;52.406;9.690;2023-02-23T01:29:05;41.03;;;25.90;;
64633;SDS011;51043;52.406;9.690;2023-02-23T01:31:38;38.17;;;24.53;;
64633;SDS011;51043;52.406;9.690;2023-02-23T01:34:06;41.80;;;25.57;;
64633;SDS011;51043;52.406;9.690;2023-02-23T01:36:35;41.67;;;25.73;;
64633;SDS011;51043;52.406;9.690;2023-02-23T01:39:05;37.73;;;24.37;;
64633;SDS011;51043;52.406;9.690;2023-02-23T01:41:36;40.50;;;24.17;;
64633;SDS011;51043;52.406;9.690;2023-02-23T01:44:04;40.17;;;25.40;;
64633;SDS011;51043;52.406;9.690;2023-02-23T01:46:42;36.83;;;23.20;;
64633;SDS011;51043;52.406;9.690;2023-02-23T01:49:14;45.10;;;27.73;;
64633;SDS011;51043;52.406;9.690;2023-02-23T01:51:49;43.67;;;26.70;;
64633;SDS011;51043;52.406;9.690;2023-02-23T01:54:22;41.10;;;27.87;;
64633;SDS011;51043;52.406;9.690;2023-02-23T01:56:54;42.37;;;27.70;;
64633;SDS011;51043;52.406;9.690;2023-02-23T01:59:44;48.63;;;29.03;;
64633;SDS011;51043;52.406;9.690;2023-02-23T02:02:12;36.73;;;25.17;;
64633;SDS011;51043;52.406;9.690;2023-02-23T02:04:43;42.20;;;27.77;;
64633;SDS011;51043;52.406;9.690;2023-02-23T02:07:16;47.33;;;32.30;;
64633;SDS011;51043;52.406;9.690;2023-02-23T02:09:48;52.10;;;31.67;;
64633;SDS011;51043;52.406;9.690;2023-02-23T02:12:39;56.97;;;34.17;;
64633;SDS011;51043;52.406;9.690;2023-02-23T02:15:09;54.73;;;35.57;;
64633;SDS011;51043;52.406;9.690;2023-02-23T02:29:14;49.43;;;35.97;;
64633;SDS011;51043;52.406;9.690;2023-02-23T02:37:55;49.50;;;35.67;;
64633;SDS011;51043;52.406;9.690;2023-02-23T02:41:00;46.83;;;33.27;;
64633;SDS011;51043;52.406;9.690;2023-02-23T02:46:20;55.07;;;37.20;;
64633;SDS011;51043;52.406;9.690;2023-02-23T02:49:02;57.30;;;35.30;;
64633;SDS011;51043;52.406;9.690;2023-02-23T02:51:36;51.07;;;33.80;;
64633;SDS011;51043;52.406;9.690;2023-02-23T02:56:44;52.87;;;35.83;;
64633;SDS011;51043;52.406;9.690;2023-02-23T02:59:15;69.57;;;36.47;;
64633;SDS011;51043;52.406;9.690;2023-02-23T03:02:03;55.60;;;35.47;;
64633;SDS011;51043;52.406;9.690;2023-02-23T03:04:50;53.10;;;35.73;;
64633;SDS011;51043;52.406;9.690;2023-02-23T03:07:49;55.33;;;37.37;;
64633;SDS011;51043;52.406;9.690;2023-02-23T03:10:46;50.87;;;36.30;;
64633;SDS011;51043;52.406;9.690;2023-02-23T03:13:55;52.37;;;36.13;;
64633;SDS011;51043;52.406;9.690;2023-02-23T03:19:54;52.27;;;36.53;;
64633;SDS011;51043;52.406;9.690;2023-02-23T03:23:08;55.40;;;37.00;;
64633;SDS011;51043;52.406;9.690;2023-02-23T03:26:06;61.07;;;38.97;;
64633;SDS011;51043;52.406;9.690;2023-02-23T03:31:52;55.33;;;36.63;;
64633;SDS011;51043;52.406;9.690;2023-02-23T03:34:51;59.30;;;40.67;;
64633;SDS011;51043;52.406;9.690;2023-02-23T03:37:47;65.13;;;43.77;;
64633;SDS011;51043;52.406;9.690;2023-02-23T03:40:40;66.40;;;44.07;;
64633;SDS011;51043;52.406;9.690;2023-02-23T03:43:31;61.17;;;42.70;;
64633;SDS011;51043;52.406;9.690;2023-02-23T03:46:22;64.63;;;45.37;;
64633;SDS011;51043;52.406;9.690;2023-02-23T03:49:13;64.77;;;43.60;;
64633;SDS011;51043;52.406;9.690;2023-02-23T03:52:04;69.53;;;47.07;;
64633;SDS011;51043;52.406;9.690;2023-02-23T03:54:56;65.40;;;45.00;;
64633;SDS011;51043;52.406;9.690;2023-02-23T03:57:45;65.83;;;45.47;;
64633;SDS011;51043;52.406;9.690;2023-02-23T04:00:36;70.90;;;47.07;;
64633;SDS011;51043;52.406;9.690;2023-02-23T04:03:26;64.07;;;45.90;;
64633;SDS011;51043;52.406;9.690;2023-02-23T04:06:14;73.27;;;46.60;;
64633;SDS011;51043;52.406;9.690;2023-02-23T04:09:05;67.40;;;47.10;;
64633;SDS011;51043;52.406;9.690;2023-02-23T04:12:01;67.90;;;46.90;;
64633;SDS011;51043;52.406;9.690;2023-02-23T04:17:24;68.90;;;46.90;;
64633;SDS011;51043;52.406;9.690;2023-02-23T04:19:54;63.47;;;46.00;;
64633;SDS011;51043;52.406;9.690;2023-02-23T04:22:22;65.43;;;44.73;;
64633;SDS011;51043;52.406;9.690;2023-02-23T04:24:49;64.93;;;46.07;;
64633;SDS011;51043;52.406;9.690;2023-02-23T04:27:16;72.10;;;47.33;;
64633;SDS011;51043;52.406;9.690;2023-02-23T04:29:44;66.47;;;46.23;;
64633;SDS011;51043;52.406;9.690;2023-02-23T04:32:15;68.97;;;47.87;;
64633;SDS011;51043;52.406;9.690;2023-02-23T04:34:44;73.13;;;49.57;;
64633;SDS011;51043;52.406;9.690;2023-02-23T04:37:11;68.83;;;50.13;;
64633;SDS011;51043;52.406;9.690;2023-02-23T04:39:38;72.17;;;51.43;;
64633;SDS011;51043;52.406;9.690;2023-02-23T04:42:05;71.90;;;51.07;;
64633;SDS011;51043;52.406;9.690;2023-02-23T04:44:32;72.30;;;50.07;;
64633;SDS011;51043;52.406;9.690;2023-02-23T04:46:58;72.70;;;52.70;;
64633;SDS011;51043;52.406;9.690;2023-02-23T04:49:25;68.40;;;49.63;;
64633;SDS011;51043;52.406;9.690;2023-02-23T04:51:52;71.87;;;47.93;;
64633;SDS011;51043;52.406;9.690;2023-02-23T04:54:19;66.60;;;45.43;;
64633;SDS011;51043;52.406;9.690;2023-02-23T04:56:46;63.37;;;45.00;;
64633;SDS011;51043;52.406;9.690;2023-02-23T04:59:12;61.10;;;45.07;;
64633;SDS011;51043;52.406;9.690;2023-02-23T05:01:39;60.43;;;44.07;;
64633;SDS011;51043;52.406;9.690;2023-02-23T05:04:06;62.80;;;43.57;;
64633;SDS011;51043;52.406;9.690;2023-02-23T05:06:33;64.27;;;44.00;;
64633;SDS011;51043;52.406;9.690;2023-02-23T05:09:00;63.27;;;44.37;;
64633;SDS011;51043;52.406;9.690;2023-02-23T05:11:28;65.47;;;43.93;;
64633;SDS011;51043;52.406;9.690;2023-02-23T05:13:55;63.73;;;45.27;;
64633;SDS011;51043;52.406;9.690;2023-02-23T05:16:22;60.47;;;43.97;;
64633;SDS011;51043;52.406;9.690;2023-02-23T05:18:49;61.37;;;43.83;;
64633;SDS011;51043;52.406;9.690;2023-02-23T05:21:16;63.70;;;45.53;;
64633;SDS011;51043;52.406;9.690;2023-02-23T05:23:43;60.20;;;43.70;;
64633;SDS011;51043;52.406;9.690;2023-02-23T05:26:11;62.67;;;43.50;;
64633;SDS011;51043;52.406;9.690;2023-02-23T05:28:38;65.07;;;43.53;;
64633;SDS011;51043;52.406;9.690;2023-02-23T05:31:08;61.40;;;43.77;;
64633;SDS011;51043;52.406;9.690;2023-02-23T05:33:35;59.97;;;42.70;;
64633;SDS011;51043;52.406;9.690;2023-02-23T05:36:11;65.67;;;44.30;;
64633;SDS011;51043;52.406;9.690;2023-02-23T05:38:42;61.17;;;43.37;;
64633;SDS011;51043;52.406;9.690;2023-02-23T05:41:11;66.37;;;44.70;;
64633;SDS011;51043;52.406;9.690;2023-02-23T05:43:39;63.57;;;44.03;;
64633;SDS011;51043;52.406;9.690;2023-02-23T05:46:11;66.30;;;45.30;;
64633;SDS011;51043;52.406;9.690;2023-02-23T05:48:41;72.20;;;44.63;;
64633;SDS011;51043;52.406;9.690;2023-02-23T05:51:09;64.63;;;44.77;;
64633;SDS011;51043;52.406;9.690;2023-02-23T05:53:38;61.20;;;43.97;;
64633;SDS011;51043;52.406;9.690;2023-02-23T05:56:07;67.87;;;46.87;;
64633;SDS011;51043;52.406;9.690;2023-02-23T05:58:36;73.07;;;45.63;;
64633;SDS011;51043;52.406;9.690;2023-02-23T06:01:03;67.97;;;44.80;;
64633;SDS011;51043;52.406;9.690;2023-02-23T06:03:30;66.50;;;46.27;;
64633;SDS011;51043;52.406;9.690;2023-02-23T06:05:57;67.63;;;46.53;;
64633;SDS011;51043;52.406;9.690;2023-02-23T06:08:24;71.73;;;47.17;;
64633;SDS011;51043;52.406;9.690;2023-02-23T06:10:51;74.70;;;48.07;;
64633;SDS011;51043;52.406;9.690;2023-02-23T06:13:18;72.63;;;48.23;;
64633;SDS011;51043;52.406;9.690;2023-02-23T06:15:46;76.20;;;47.30;;
64633;SDS011;51043;52.406;9.690;2023-02-23T06:18:14;75.03;;;48.53;;
64633;SDS011;51043;52.406;9.690;2023-02-23T06:20:42;74.57;;;48.53;;
64633;SDS011;51043;52.406;9.690;2023-02-23T06:23:11;80.63;;;48.70;;
64633;SDS011;51043;52.406;9.690;2023-02-23T06:25:39;72.03;;;49.20;;
64633;SDS011;51043;52.406;9.690;2023-02-23T06:28:07;83.40;;;51.97;;
64633;SDS011;51043;52.406;9.690;2023-02-23T06:30:34;79.10;;;49.00;;
64633;SDS011;51043;52.406;9.690;2023-02-23T06:33:01;79.83;;;49.50;;
64633;SDS011;51043;52.406;9.690;2023-02-23T06:35:29;75.70;;;49.30;;
64633;SDS011;51043;52.406;9.690;2023-02-23T06:37:57;81.30;;;49.40;;
64633;SDS011;51043;52.406;9.690;2023-02-23T06:40:25;77.33;;;49.90;;
64633;SDS011;51043;52.406;9.690;2023-02-23T06:42:52;76.23;;;48.93;;
64633;SDS011;51043;52.406;9.690;2023-02-23T06:45:19;76.90;;;48.20;;
64633;SDS011;51043;52.406;9.690;2023-02-23T06:47:45;79.53;;;50.60;;
64633;SDS011;51043;52.406;9.690;2023-02-23T06:50:13;74.20;;;47.83;;
64633;SDS011;51043;52.406;9.690;2023-02-23T06:52:40;71.53;;;47.00;;
64633;SDS011;51043;52.406;9.690;2023-02-23T06:55:07;71.27;;;48.43;;
64633;SDS011;51043;52.406;9.690;2023-02-23T06:57:35;74.67;;;46.90;;
64633;SDS011;51043;52.406;9.690;2023-02-23T07:00:02;73.00;;;48.73;;
64633;SDS011;51043;52.406;9.690;2023-02-23T07:02:29;80.07;;;48.87;;
64633;SDS011;51043;52.406;9.690;2023-02-23T07:04:57;80.33;;;48.93;;
64633;SDS011;51043;52.406;9.690;2023-02-23T07:07:24;76.30;;;49.50;;
64633;SDS011;51043;52.406;9.690;2023-02-23T07:09:50;87.07;;;50.83;;
64633;SDS011;51043;52.406;9.690;2023-02-23T07:12:17;85.53;;;52.33;;
64633;SDS011;51043;52.406;9.690;2023-02-23T07:14:44;77.73;;;49.47;;
64633;SDS011;51043;52.406;9.690;2023-02-23T07:17:11;82.73;;;50.03;;
64633;SDS011;51043;52.406;9.690;2023-02-23T07:19:38;80.17;;;50.00;;
64633;SDS011;51043;52.406;9.690;2023-02-23T07:22:06;74.90;;;50.20;;
64633;SDS011;51043;52.406;9.690;2023-02-23T07:24:33;83.57;;;50.43;;
64633;SDS011;51043;52.406;9.690;2023-02-23T07:27:00;78.53;;;48.97;;
64633;SDS011;51043;52.406;9.690;2023-02-23T07:29:26;84.27;;;49.13;;
64633;SDS011;51043;52.406;9.690;2023-02-23T07:31:53;78.97;;;48.87;;
64633;SDS011;51043;52.406;9.690;2023-02-23T07:34:20;86.27;;;48.87;;
64633;SDS011;51043;52.406;9.690;2023-02-23T07:36:47;79.23;;;48.90;;
64633;SDS011;51043;52.406;9.690;2023-02-23T07:39:14;81.87;;;49.37;;
64633;SDS011;51043;52.406;9.690;2023-02-23T07:41:41;88.93;;;49.87;;
64633;SDS011;51043;52.406;9.690;2023-02-23T07:44:16;87.40;;;50.83;;
64633;SDS011;51043;52.406;9.690;2023-02-23T07:46:43;87.77;;;52.17;;
64633;SDS011;51043;52.406;9.690;2023-02-23T07:49:11;91.30;;;51.03;;
64633;SDS011;51043;52.406;9.690;2023-02-23T07:51:39;90.70;;;51.20;;
64633;SDS011;51043;52.406;9.690;2023-02-23T07:54:07;88.20;;;52.63;;
64633;SDS011;51043;52.406;9.690;2023-02-23T07:56:34;89.20;;;51.53;;
64633;SDS011;51043;52.406;9.690;2023-02-23T07:59:01;89.53;;;52.90;;
64633;SDS011;51043;52.406;9.690;2023-02-23T08:01:28;85.43;;;51.33;;
64633;SDS011;51043;52.406;9.690;2023-02-23T08:03:55;86.63;;;52.57;;
64633;SDS011;51043;52.406;9.690;2023-02-23T08:06:22;94.27;;;51.77;;
64633;SDS011;51043;52.406;9.690;2023-02-23T08:08:49;81.93;;;51.13;;
64633;SDS011;51043;52.406;9.690;2023-02-23T08:11:16;92.07;;;53.77;;
64633;SDS011;51043;52.406;9.690;2023-02-23T08:13:43;91.07;;;53.80;;
64633;SDS011;51043;52.406;9.690;2023-02-23T08:16:10;91.67;;;55.30;;
64633;SDS011;51043;52.406;9.690;2023-02-23T08:18:41;93.10;;;54.40;;
64633;SDS011;51043;52.406;9.690;2023-02-23T08:21:08;83.93;;;52.40;;
64633;SDS011;51043;52.406;9.690;2023-02-23T08:23:35;85.67;;;53.57;;
64633;SDS011;51043;52.406;9.690;2023-02-23T08:26:02;85.73;;;52.40;;
64633;SDS011;51043;52.406;9.690;2023-02-23T08:28:29;78.97;;;50.83;;
64633;SDS011;51043;52.406;9.690;2023-02-23T08:30:56;85.27;;;51.87;;
64633;SDS011;51043;52.406;9.690;2023-02-23T08:33:24;80.97;;;51.00;;
64633;SDS011;51043;52.406;9.690;2023-02-23T08:35:51;81.83;;;48.33;;
64633;SDS011;51043;52.406;9.690;2023-02-23T08:38:20;85.90;;;52.20;;
64633;SDS011;51043;52.406;9.690;2023-02-23T08:40:46;87.97;;;51.20;;
64633;SDS011;51043;52.406;9.690;2023-02-23T08:43:13;87.53;;;53.30;;
64633;SDS011;51043;52.406;9.690;2023-02-23T08:45:41;87.53;;;54.17;;
64633;SDS011;51043;52.406;9.690;2023-02-23T08:48:08;92.17;;;54.63;;
64633;SDS011;51043;52.406;9.690;2023-02-23T08:50:35;97.67;;;56.57;;
64633;SDS011;51043;52.406;9.690;2023-02-23T08:53:02;90.37;;;54.40;;
64633;SDS011;51043;52.406;9.690;2023-02-23T08:55:29;83.53;;;49.33;;
64633;SDS011;51043;52.406;9.690;2023-02-23T08:57:56;96.40;;;56.23;;
64633;SDS011;51043;52.406;9.690;2023-02-23T09:00:23;98.70;;;57.43;;
64633;SDS011;51043;52.406;9.690;2023-02-23T09:02:51;95.83;;;58.13;;
64633;SDS011;51043;52.406;9.690;2023-02-23T09:05:18;103.13;;;59.13;;
64633;SDS011;51043;52.406;9.690;2023-02-23T09:07:45;98.00;;;57.60;;
64633;SDS011;51043;52.406;9.690;2023-02-23T09:10:14;89.93;;;53.27;;
64633;SDS011;51043;52.406;9.690;2023-02-23T09:12:45;94.53;;;57.93;;
64633;SDS011;51043;52.406;9.690;2023-02-23T09:15:11;96.67;;;57.03;;
64633;SDS011;51043;52.406;9.690;2023-02-23T09:17:38;93.50;;;55.93;;
64633;SDS011;51043;52.406;9.690;2023-02-23T09:20:10;97.90;;;56.17;;
64633;SDS011;51043;52.406;9.690;2023-02-23T09:22:39;100.10;;;59.20;;
64633;SDS011;51043;52.406;9.690;2023-02-23T09:25:07;97.73;;;57.70;;
64633;SDS011;51043;52.406;9.690;2023-02-23T09:27:35;99.93;;;54.73;;
64633;SDS011;51043;52.406;9.690;2023-02-23T09:30:03;94.13;;;56.33;;
64633;SDS011;51043;52.406;9.690;2023-02-23T09:32:31;101.17;;;56.00;;
64633;SDS011;51043;52.406;9.690;2023-02-23T09:34:58;98.07;;;55.70;;
64633;SDS011;51043;52.406;9.690;2023-02-23T09:37:25;91.37;;;53.40;;
64633;SDS011;51043;52.406;9.690;2023-02-23T09:39:51;89.17;;;52.53;;
64633;SDS011;51043;52.406;9.690;2023-02-23T09:48:21;85.70;;;52.07;;
64633;SDS011;51043;52.406;9.690;2023-02-23T09:50:54;86.97;;;51.93;;
64633;SDS011;51043;52.406;9.690;2023-02-23T09:56:20;86.77;;;51.83;;
64633;SDS011;51043;52.406;9.690;2023-02-23T09:58:50;74.50;;;48.27;;
64633;SDS011;51043;52.406;9.690;2023-02-23T10:01:20;81.50;;;50.80;;
64633;SDS011;51043;52.406;9.690;2023-02-23T10:18:11;78.17;;;47.97;;
64633;SDS011;51043;52.406;9.690;2023-02-23T10:24:04;75.47;;;45.10;;
64633;SDS011;51043;52.406;9.690;2023-02-23T10:26:40;74.40;;;43.70;;
64633;SDS011;51043;52.406;9.690;2023-02-23T10:29:16;72.93;;;43.70;;
64633;SDS011;51043;52.406;9.690;2023-02-23T10:32:06;70.47;;;43.50;;
64633;SDS011;51043;52.406;9.690;2023-02-23T10:34:55;57.90;;;37.97;;
64633;SDS011;51043;52.406;9.690;2023-02-23T10:37:23;62.43;;;38.33;;
64633;SDS011;51043;52.406;9.690;2023-02-23T10:39:51;50.77;;;34.30;;
64633;SDS011;51043;52.406;9.690;2023-02-23T10:42:22;59.13;;;38.37;;
64633;SDS011;51043;52.406;9.690;2023-02-23T10:44:57;61.67;;;39.33;;
64633;SDS011;51043;52.406;9.690;2023-02-23T10:47:31;57.73;;;36.43;;
64633;SDS011;51043;52.406;9.690;2023-02-23T10:50:01;56.40;;;36.77;;
64633;SDS011;51043;52.406;9.690;2023-02-23T10:54:59;56.50;;;37.33;;
64633;SDS011;51043;52.406;9.690;2023-02-23T10:57:30;55.50;;;36.20;;
64633;SDS011;51043;52.406;9.690;2023-02-23T11:02:43;49.53;;;32.43;;
64633;SDS011;51043;52.406;9.690;2023-02-23T11:05:27;47.00;;;32.07;;
64633;SDS011;51043;52.406;9.690;2023-02-23T11:13:47;44.13;;;29.13;;
64633;SDS011;51043;52.406;9.690;2023-02-23T11:18:52;43.47;;;30.30;;
64633;SDS011;51043;52.406;9.690;2023-02-23T11:21:27;45.73;;;30.47;;
64633;SDS011;51043;52.406;9.690;2023-02-23T11:24:46;43.13;;;30.23;;
64633;SDS011;51043;52.406;9.690;2023-02-23T11:26:50;45.87;;;31.73;;
64633;SDS011;51043;52.406;9.690;2023-02-23T11:29:28;42.47;;;30.90;;
64633;SDS011;51043;52.406;9.690;2023-02-23T11:32:07;36.63;;;26.90;;
64633;SDS011;51043;52.406;9.690;2023-02-23T11:34:42;37.60;;;27.70;;
64633;SDS011;51043;52.406;9.690;2023-02-23T11:39:58;35.97;;;25.43;;
64633;SDS011;51043;52.406;9.690;2023-02-23T11:42:27;31.13;;;23.50;;
64633;SDS011;51043;52.406;9.690;2023-02-23T11:45:02;41.03;;;29.47;;
64633;SDS011;51043;52.406;9.690;2023-02-23T11:47:40;38.37;;;26.97;;
64633;SDS011;51043;52.406;9.690;2023-02-23T11:52:52;36.50;;;26.97;;
64633;SDS011;51043;52.406;9.690;2023-02-23T11:55:26;35.67;;;25.50;;
64633;SDS011;51043;52.406;9.690;2023-02-23T11:58:09;35.50;;;25.23;;
64633;SDS011;51043;52.406;9.690;2023-02-23T12:01:02;40.47;;;29.10;;
64633;SDS011;51043;52.406;9.690;2023-02-23T12:03:43;35.50;;;25.67;;
64633;SDS011;51043;52.406;9.690;2023-02-23T12:06:47;40.80;;;28.23;;
64633;SDS011;51043;52.406;9.690;2023-02-23T12:09:15;40.03;;;29.07;;
64633;SDS011;51043;52.406;9.690;2023-02-23T12:11:47;41.77;;;29.23;;
64633;SDS011;51043;52.406;9.690;2023-02-23T12:14:24;45.60;;;30.67;;
64633;SDS011;51043;52.406;9.690;2023-02-23T12:17:05;47.73;;;32.00;;
64633;SDS011;51043;52.406;9.690;2023-02-23T12:19:41;51.00;;;33.77;;
64633;SDS011;51043;52.406;9.690;2023-02-23T12:22:14;52.33;;;32.77;;
64633;SDS011;51043;52.406;9.690;2023-02-23T12:24:53;46.67;;;31.20;;
64633;SDS011;51043;52.406;9.690;2023-02-23T12:27:32;44.87;;;28.77;;
64633;SDS011;51043;52.406;9.690;2023-02-23T12:30:15;47.23;;;29.97;;
64633;SDS011;51043;52.406;9.690;2023-02-23T12:38:53;48.03;;;31.83;;
64633;SDS011;51043;52.406;9.690;2023-02-23T12:41:23;54.77;;;32.23;;
64633;SDS011;51043;52.406;9.690;2023-02-23T12:55:59;54.20;;;32.20;;
64633;SDS011;51043;52.406;9.690;2023-02-23T13:04:48;58.10;;;32.30;;
64633;SDS011;51043;52.406;9.690;2023-02-23T13:07:42;61.90;;;33.17;;
64633;SDS011;51043;52.406;9.690;2023-02-23T13:16:22;59.70;;;33.20;;
64633;SDS011;51043;52.406;9.690;2023-02-23T13:19:39;61.03;;;34.87;;
64633;SDS011;51043;52.406;9.690;2023-02-23T13:22:10;59.90;;;34.30;;
64633;SDS011;51043;52.406;9.690;2023-02-23T13:25:01;62.57;;;35.50;;
64633;SDS011;51043;52.406;9.690;2023-02-23T13:27:36;65.13;;;35.70;;
64633;SDS011;51043;52.406;9.690;2023-02-23T13:30:09;60.60;;;34.27;;
64633;SDS011;51043;52.406;9.690;2023-02-23T13:32:36;57.67;;;32.93;;
64633;SDS011;51043;52.406;9.690;2023-02-23T13:35:05;63.83;;;34.20;;
64633;SDS011;51043;52.406;9.690;2023-02-23T13:46:13;63.53;;;34.03;;
64633;SDS011;51043;52.406;9.690;2023-02-23T13:48:52;64.53;;;32.87;;
64633;SDS011;51043;52.406;9.690;2023-02-23T13:54:05;74.97;;;41.90;;
64633;SDS011;51043;52.406;9.690;2023-02-23T13:56:49;60.13;;;31.33;;
64633;SDS011;51043;52.406;9.690;2023-02-23T13:59:21;60.03;;;32.07;;
64633;SDS011;51043;52.406;9.690;2023-02-23T14:01:51;60.97;;;31.43;;
64633;SDS011;51043;52.406;9.690;2023-02-23T14:04:26;61.23;;;32.57;;
64633;SDS011;51043;52.406;9.690;2023-02-23T14:07:03;65.93;;;32.83;;
64633;SDS011;51043;52.406;9.690;2023-02-23T14:09:54;66.03;;;32.27;;
64633;SDS011;51043;52.406;9.690;2023-02-23T14:12:33;64.80;;;31.83;;
64633;SDS011;51043;52.406;9.690;2023-02-23T14:17:54;66.47;;;33.73;;
64633;SDS011;51043;52.406;9.690;2023-02-23T14:21:11;59.90;;;30.30;;
64633;SDS011;51043;52.406;9.690;2023-02-23T14:31:33;62.80;;;30.73;;
64633;SDS011;51043;52.406;9.690;2023-02-23T14:34:08;60.90;;;29.00;;
64633;SDS011;51043;52.406;9.690;2023-02-23T14:36:41;58.90;;;28.77;;
64633;SDS011;51043;52.406;9.690;2023-02-23T14:39:22;59.70;;;30.30;;
64633;SDS011;51043;52.406;9.690;2023-02-23T14:41:56;57.93;;;26.43;;
64633;SDS011;51043;52.406;9.690;2023-02-23T14:44:28;59.10;;;29.53;;
64633;SDS011;51043;52.406;9.690;2023-02-23T14:47:07;62.10;;;30.73;;
64633;SDS011;51043;52.406;9.690;2023-02-23T14:49:57;60.33;;;30.23;;
64633;SDS011;51043;52.406;9.690;2023-02-23T14:52:27;60.90;;;31.20;;
64633;SDS011;51043;52.406;9.690;2023-02-23T14:55:13;66.10;;;31.27;;
64633;SDS011;51043;52.406;9.690;2023-02-23T14:57:46;57.53;;;29.07;;
64633;SDS011;51043;52.406;9.690;2023-02-23T15:05:33;64.97;;;31.33;;
64633;SDS011;51043;52.406;9.690;2023-02-23T15:08:03;61.87;;;31.90;;
64633;SDS011;51043;52.406;9.690;2023-02-23T15:10:34;70.43;;;32.97;;
64633;SDS011;51043;52.406;9.690;2023-02-23T15:13:07;72.70;;;33.63;;
64633;SDS011;51043;52.406;9.690;2023-02-23T15:15:39;64.43;;;30.03;;
64633;SDS011;51043;52.406;9.690;2023-02-23T15:21:54;67.77;;;32.70;;
64633;SDS011;51043;52.406;9.690;2023-02-23T15:24:27;60.07;;;27.83;;
64633;SDS011;51043;52.406;9.690;2023-02-23T15:26:58;48.60;;;25.10;;
64633;SDS011;51043;52.406;9.690;2023-02-23T15:29:29;55.97;;;26.27;;
64633;SDS011;51043;52.406;9.690;2023-02-23T15:32:09;63.70;;;31.17;;
64633;SDS011;51043;52.406;9.690;2023-02-23T15:34:54;70.83;;;29.03;;
64633;SDS011;51043;52.406;9.690;2023-02-23T15:40:10;74.73;;;32.73;;
64633;SDS011;51043;52.406;9.690;2023-02-23T15:42:42;75.47;;;33.03;;
64633;SDS011;51043;52.406;9.690;2023-02-23T15:45:35;69.17;;;30.03;;
64633;SDS011;51043;52.406;9.690;2023-02-23T15:48:04;73.63;;;30.67;;
64633;SDS011;51043;52.406;9.690;2023-02-23T15:50:34;76.33;;;28.90;;
64633;SDS011;51043;52.406;9.690;2023-02-23T15:53:17;63.87;;;27.93;;
64633;SDS011;51043;52.406;9.690;2023-02-23T15:55:52;70.50;;;30.47;;
64633;SDS011;51043;52.406;9.690;2023-02-23T15:58:23;81.13;;;33.10;;
64633;SDS011;51043;52.406;9.690;2023-02-23T16:00:59;74.60;;;30.27;;
64633;SDS011;51043;52.406;9.690;2023-02-23T16:03:38;84.80;;;38.77;;
64633;SDS011;51043;52.406;9.690;2023-02-23T16:06:31;78.60;;;33.30;;
64633;SDS011;51043;52.406;9.690;2023-02-23T16:09:12;87.00;;;33.67;;
64633;SDS011;51043;52.406;9.690;2023-02-23T16:11:51;74.20;;;29.53;;
64633;SDS011;51043;52.406;9.690;2023-02-23T16:14:22;83.30;;;32.77;;
64633;SDS011;51043;52.406;9.690;2023-02-23T16:16:51;91.70;;;36.20;;
64633;SDS011;51043;52.406;9.690;2023-02-23T16:19:35;86.10;;;33.90;;
64633;SDS011;51043;52.406;9.690;2023-02-23T16:22:06;87.90;;;36.30;;
64633;SDS011;51043;52.406;9.690;2023-02-23T16:24:44;82.37;;;33.20;;
64633;SDS011;51043;52.406;9.690;2023-02-23T16:27:18;90.53;;;34.87;;
64633;SDS011;51043;52.406;9.690;2023-02-23T16:29:47;87.77;;;34.67;;
64633;SDS011;51043;52.406;9.690;2023-02-23T16:32:22;102.77;;;45.77;;
64633;SDS011;51043;52.406;9.690;2023-02-23T16:34:54;92.57;;;34.73;;
64633;SDS011;51043;52.406;9.690;2023-02-23T16:37:25;101.00;;;34.63;;
64633;SDS011;51043;52.406;9.690;2023-02-23T16:39:53;108.27;;;37.33;;
64633;SDS011;51043;52.406;9.690;2023-02-23T16:44:53;85.30;;;32.30;;
64633;SDS011;51043;52.406;9.690;2023-02-23T16:49:51;81.47;;;31.50;;
64633;SDS011;51043;52.406;9.690;2023-02-23T16:52:19;81.53;;;29.90;;
64633;SDS011;51043;52.406;9.690;2023-02-23T16:54:48;65.37;;;28.07;;
64633;SDS011;51043;52.406;9.690;2023-02-23T16:57:20;68.20;;;25.77;;
64633;SDS011;51043;52.406;9.690;2023-02-23T16:59:50;69.23;;;29.90;;
64633;SDS011;51043;52.406;9.690;2023-02-23T17:02:19;64.47;;;27.70;;
64633;SDS011;51043;52.406;9.690;2023-02-23T17:04:49;67.67;;;25.20;;
64633;SDS011;51043;52.406;9.690;2023-02-23T17:07:18;83.90;;;30.70;;
64633;SDS011;51043;52.406;9.690;2023-02-23T17:09:48;98.60;;;35.37;;
64633;SDS011;51043;52.406;9.690;2023-02-23T17:12:15;100.80;;;35.47;;
64633;SDS011;51043;52.406;9.690;2023-02-23T17:14:47;125.53;;;40.40;;
64633;SDS011;51043;52.406;9.690;2023-02-23T17:17:15;117.93;;;41.10;;
64633;SDS011;51043;52.406;9.690;2023-02-23T17:19:43;124.43;;;41.87;;
64633;SDS011;51043;52.406;9.690;2023-02-23T17:22:11;130.90;;;41.53;;